Time;durP1;ratioP1;P1;durP2;ratioP2;P2;SDS_P1;SDS_P2;PMS_P1;PMS_P2;Temp;Humidity;BMP_temperature;BMP_pressure;BME280_temperature;BME280_humidity;BME280_pressure;Samples;Min_cycle;Max_cycle;Signal;HPM_P1;HPM_P2
2021/08/19 00:00:48;;;;;;;3.15;1.05;;;;;;;;;;5014955;28;20124;-53
2021/08/19 00:03:14;;;;;;;1.27;1.10;;;;;;;;;;5015976;28;20026;-53
2021/08/19 00:05:40;;;;;;;1.50;1.10;;;;;;;;;;5015467;28;20037;-53
2021/08/19 00:08:06;;;;;;;2.53;1.25;;;;;;;;;;5015413;28;20022;-53
2021/08/19 00:10:32;;;;;;;2.10;1.30;;;;;;;;;;5014690;28;20045;-53
2021/08/19 00:12:59;;;;;;;7.82;1.20;;;;;;;;;;5015697;28;20033;-52
2021/08/19 00:15:25;;;;;;;4.00;1.38;;;;;;;;;;5015194;28;20065;-52
2021/08/19 00:17:51;;;;;;;1.80;1.30;;;;;;;;;;5015426;28;20396;-52
2021/08/19 00:20:17;;;;;;;2.30;1.40;;;;;;;;;;5015216;28;20073;-52
2021/08/19 00:22:43;;;;;;;1.30;1.00;;;;;;;;;;5014581;28;20033;-53
2021/08/19 00:25:09;;;;;;;2.55;1.30;;;;;;;;;;5015049;28;20041;-52
2021/08/19 00:27:35;;;;;;;6.03;1.45;;;;;;;;;;5015220;28;20029;-52
2021/08/19 00:30:01;;;;;;;1.80;1.30;;;;;;;;;;5014847;28;20029;-52
2021/08/19 00:32:28;;;;;;;1.83;1.10;;;;;;;;;;5014859;28;20347;-53
2021/08/19 00:34:54;;;;;;;4.72;1.80;;;;;;;;;;5014668;28;20037;-52
2021/08/19 00:37:20;;;;;;;3.92;1.40;;;;;;;;;;5014794;28;20029;-52
2021/08/19 00:39:46;;;;;;;3.83;1.52;;;;;;;;;;5014439;28;20099;-53
2021/08/19 00:42:16;;;;;;;3.03;1.48;;;;;;;;;;5014839;28;20028;-53
2021/08/19 00:44:45;;;;;;;2.20;1.52;;;;;;;;;;5014463;28;20364;-53
2021/08/19 00:47:11;;;;;;;2.35;1.48;;;;;;;;;;5015051;28;20022;-52
2021/08/19 00:49:38;;;;;;;2.78;1.42;;;;;;;;;;5014705;28;20022;-52
2021/08/19 00:52:04;;;;;;;2.10;1.23;;;;;;;;;;5013903;28;20037;-52
2021/08/19 00:54:30;;;;;;;3.88;1.77;;;;;;;;;;5014185;28;20475;-53
2021/08/19 00:56:57;;;;;;;2.33;1.42;;;;;;;;;;5014727;28;20026;-53
2021/08/19 00:59:24;;;;;;;3.75;1.42;;;;;;;;;;5014399;28;20021;-52
2021/08/19 01:01:54;;;;;;;4.43;1.40;;;;;;;;;;5014270;28;20250;-52
2021/08/19 01:04:20;;;;;;;6.07;2.03;;;;;;;;;;5014802;28;20018;-52
2021/08/19 01:06:46;;;;;;;1.83;1.30;;;;;;;;;;5013759;28;20038;-52
2021/08/19 01:09:12;;;;;;;2.00;1.17;;;;;;;;;;5014127;28;20024;-52
2021/08/19 01:11:39;;;;;;;1.95;1.33;;;;;;;;;;5012437;28;20059;-52
2021/08/19 01:14:06;;;;;;;2.20;1.38;;;;;;;;;;5014431;28;20069;-53
2021/08/19 01:16:32;;;;;;;3.45;1.30;;;;;;;;;;5014237;28;20337;-53
2021/08/19 01:18:58;;;;;;;5.43;1.52;;;;;;;;;;5013829;28;20026;-52
2021/08/19 01:21:24;;;;;;;4.10;1.10;;;;;;;;;;5013074;28;20029;-53
2021/08/19 01:23:50;;;;;;;3.05;1.27;;;;;;;;;;5013911;28;20026;-53
2021/08/19 01:26:17;;;;;;;3.13;1.08;;;;;;;;;;5014306;28;20033;-53
2021/08/19 01:28:44;;;;;;;2.38;1.40;;;;;;;;;;5013839;28;20057;-52
2021/08/19 01:31:13;;;;;;;2.40;1.27;;;;;;;;;;5013343;28;20125;-52
2021/08/19 01:33:41;;;;;;;1.10;1.00;;;;;;;;;;5013970;28;20037;-52
2021/08/19 01:36:07;;;;;;;2.53;1.45;;;;;;;;;;5013558;28;20103;-52
2021/08/19 01:38:34;;;;;;;2.30;1.30;;;;;;;;;;5014075;28;20022;-52
2021/08/19 01:41:01;;;;;;;2.30;1.10;;;;;;;;;;5013324;28;20030;-53
2021/08/19 01:43:28;;;;;;;7.00;1.63;;;;;;;;;;5031947;28;20035;-52
2021/08/19 01:45:55;;;;;;;4.20;1.50;;;;;;;;;;5033241;28;20025;-52
2021/08/19 01:48:21;;;;;;;1.20;1.02;;;;;;;;;;5033440;28;20435;-52
2021/08/19 01:50:47;;;;;;;2.40;1.30;;;;;;;;;;5032811;28;20033;-52
2021/08/19 01:53:13;;;;;;;1.90;1.15;;;;;;;;;;5033115;28;20037;-53
2021/08/19 01:55:40;;;;;;;2.60;1.60;;;;;;;;;;5033008;28;20359;-53
2021/08/19 01:58:06;;;;;;;2.17;1.40;;;;;;;;;;5033461;28;20026;-52
2021/08/19 02:00:32;;;;;;;2.33;1.70;;;;;;;;;;5032738;28;20340;-52
2021/08/19 02:03:00;;;;;;;3.33;1.67;;;;;;;;;;5032616;28;20427;-52
2021/08/19 02:05:26;;;;;;;5.22;1.52;;;;;;;;;;5033289;28;20044;-52
2021/08/19 02:07:52;;;;;;;4.80;1.73;;;;;;;;;;5033429;28;20440;-53
2021/08/19 02:10:18;;;;;;;2.38;1.27;;;;;;;;;;5032617;28;20025;-52
2021/08/19 02:12:45;;;;;;;2.30;1.30;;;;;;;;;;5032651;28;20435;-52
2021/08/19 02:15:11;;;;;;;1.55;1.27;;;;;;;;;;5033273;28;20021;-52
2021/08/19 02:17:37;;;;;;;4.30;1.50;;;;;;;;;;5032542;28;20471;-52
2021/08/19 02:20:03;;;;;;;1.45;1.13;;;;;;;;;;5032956;28;20022;-53
2021/08/19 02:22:29;;;;;;;3.50;1.45;;;;;;;;;;5032658;28;20025;-53
2021/08/19 02:24:55;;;;;;;3.35;1.45;;;;;;;;;;5032984;28;20040;-53
2021/08/19 02:27:21;;;;;;;2.30;1.50;;;;;;;;;;5031713;28;20086;-52
2021/08/19 02:29:48;;;;;;;3.45;1.80;;;;;;;;;;5052409;28;20021;-53
2021/08/19 02:32:14;;;;;;;2.67;1.42;;;;;;;;;;5052303;28;20045;-53
2021/08/19 02:34:40;;;;;;;2.25;1.40;;;;;;;;;;5052743;28;20021;-53
2021/08/19 02:37:06;;;;;;;3.45;1.50;;;;;;;;;;5013014;28;20113;-52
2021/08/19 02:39:32;;;;;;;2.95;1.17;;;;;;;;;;5012532;28;20025;-52
2021/08/19 02:41:58;;;;;;;1.38;1.20;;;;;;;;;;5012789;28;20373;-52
2021/08/19 02:44:24;;;;;;;3.72;1.77;;;;;;;;;;5012592;28;20104;-52
2021/08/19 02:46:50;;;;;;;5.22;1.48;;;;;;;;;;5012882;28;20041;-53
2021/08/19 02:49:16;;;;;;;3.33;1.40;;;;;;;;;;5012485;28;20037;-53
2021/08/19 02:51:42;;;;;;;1.33;1.13;;;;;;;;;;5012322;28;20038;-53
2021/08/19 02:54:08;;;;;;;4.72;1.20;;;;;;;;;;5012993;28;20025;-53
2021/08/19 02:56:35;;;;;;;2.45;1.33;;;;;;;;;;5012831;28;20359;-52
2021/08/19 02:59:01;;;;;;;5.30;1.15;;;;;;;;;;5013003;28;20037;-52
2021/08/19 03:01:27;;;;;;;1.40;1.30;;;;;;;;;;5012580;28;20109;-52
2021/08/19 03:03:53;;;;;;;3.30;1.25;;;;;;;;;;5012603;28;20137;-53
2021/08/19 03:06:19;;;;;;;4.10;1.40;;;;;;;;;;5012995;28;20026;-53
2021/08/19 03:08:45;;;;;;;2.33;1.30;;;;;;;;;;5012287;28;20030;-52
2021/08/19 03:11:11;;;;;;;1.73;1.13;;;;;;;;;;5012124;28;20087;-53
2021/08/19 03:13:37;;;;;;;2.45;1.48;;;;;;;;;;5012520;28;20076;-52
2021/08/19 03:16:05;;;;;;;2.22;1.40;;;;;;;;;;5015191;28;20033;-53
2021/08/19 03:18:31;;;;;;;1.75;1.00;;;;;;;;;;5016147;28;20363;-53
2021/08/19 03:20:57;;;;;;;2.22;1.30;;;;;;;;;;5015850;28;20022;-52
2021/08/19 03:23:24;;;;;;;1.63;1.40;;;;;;;;;;5016410;28;20022;-52
2021/08/19 03:25:51;;;;;;;1.40;1.30;;;;;;;;;;5016353;28;20141;-52
2021/08/19 03:28:18;;;;;;;3.45;1.30;;;;;;;;;;5015885;28;20045;-52
2021/08/19 03:30:44;;;;;;;6.10;1.33;;;;;;;;;;5015576;28;20037;-52
2021/08/19 03:33:10;;;;;;;3.45;0.90;;;;;;;;;;5016327;28;20026;-53
2021/08/19 03:35:36;;;;;;;3.25;1.20;;;;;;;;;;5015853;28;20335;-52
2021/08/19 03:38:02;;;;;;;2.00;1.20;;;;;;;;;;5016174;28;20026;-52
2021/08/19 03:40:29;;;;;;;1.67;1.13;;;;;;;;;;5015820;28;20080;-53
2021/08/19 03:42:54;;;;;;;1.20;1.00;;;;;;;;;;5015818;28;20026;-53
2021/08/19 03:45:21;;;;;;;3.22;1.55;;;;;;;;;;5016108;28;20029;-52
2021/08/19 03:47:47;;;;;;;2.22;1.55;;;;;;;;;;5015913;28;20360;-52
2021/08/19 03:50:13;;;;;;;2.92;1.50;;;;;;;;;;5014824;28;20030;-53
2021/08/19 03:52:39;;;;;;;2.97;1.73;;;;;;;;;;5015890;28;20088;-53
2021/08/19 03:55:05;;;;;;;2.15;1.60;;;;;;;;;;5015906;28;20049;-53
2021/08/19 03:57:31;;;;;;;2.55;1.33;;;;;;;;;;5015913;28;20035;-53
2021/08/19 03:59:57;;;;;;;3.28;1.50;;;;;;;;;;5015162;28;20547;-53
2021/08/19 04:02:23;;;;;;;3.95;1.40;;;;;;;;;;5015650;28;20028;-53
2021/08/19 04:04:49;;;;;;;2.38;1.55;;;;;;;;;;5015082;28;20021;-53
2021/08/19 04:07:15;;;;;;;1.65;1.45;;;;;;;;;;5015644;28;20087;-52
2021/08/19 04:09:41;;;;;;;1.70;1.45;;;;;;;;;;5015698;28;20025;-53
2021/08/19 04:12:08;;;;;;;3.35;1.85;;;;;;;;;;5015067;28;20030;-53
2021/08/19 04:14:34;;;;;;;4.68;1.70;;;;;;;;;;5015800;28;20104;-53
2021/08/19 04:17:00;;;;;;;2.60;1.45;;;;;;;;;;5015287;28;20108;-53
2021/08/19 04:19:26;;;;;;;3.05;1.77;;;;;;;;;;5014857;28;20075;-52
2021/08/19 04:21:52;;;;;;;2.45;1.20;;;;;;;;;;5033591;28;20459;-53
2021/08/19 04:24:18;;;;;;;2.08;1.88;;;;;;;;;;5035020;28;20044;-53
2021/08/19 04:26:44;;;;;;;2.47;1.65;;;;;;;;;;5034256;28;20025;-52
2021/08/19 04:29:10;;;;;;;3.05;1.67;;;;;;;;;;5034264;28;20439;-53
2021/08/19 04:31:37;;;;;;;2.38;1.75;;;;;;;;;;5034848;28;20091;-53
2021/08/19 04:34:03;;;;;;;2.35;1.40;;;;;;;;;;5034723;28;20025;-53
2021/08/19 04:36:30;;;;;;;2.40;1.80;;;;;;;;;;5035082;28;20411;-53
2021/08/19 04:38:56;;;;;;;1.60;1.30;;;;;;;;;;5034535;28;20555;-52
2021/08/19 04:41:22;;;;;;;4.18;1.52;;;;;;;;;;5033885;28;20033;-51
2021/08/19 04:43:48;;;;;;;4.35;1.60;;;;;;;;;;5034897;28;20096;-52
2021/08/19 04:46:14;;;;;;;3.53;1.80;;;;;;;;;;5034898;28;20124;-53
2021/08/19 04:48:40;;;;;;;3.45;1.60;;;;;;;;;;5034549;28;20047;-52
2021/08/19 04:51:06;;;;;;;3.92;1.52;;;;;;;;;;5033788;28;20083;-52
2021/08/19 04:53:32;;;;;;;1.95;1.42;;;;;;;;;;5034416;28;20026;-53
2021/08/19 04:55:58;;;;;;;2.72;1.60;;;;;;;;;;5034451;28;20033;-53
2021/08/19 04:58:27;;;;;;;3.05;1.50;;;;;;;;;;5034660;28;20028;-53
2021/08/19 05:00:53;;;;;;;1.77;1.60;;;;;;;;;;5033454;28;20033;-53
2021/08/19 05:03:19;;;;;;;1.85;1.58;;;;;;;;;;5034099;28;20028;-52
2021/08/19 05:05:45;;;;;;;2.25;1.65;;;;;;;;;;5033854;28;20521;-53
2021/08/19 05:08:11;;;;;;;2.67;1.65;;;;;;;;;;5034688;28;20026;-52
2021/08/19 05:10:37;;;;;;;3.85;1.70;;;;;;;;;;5033438;28;20036;-52
2021/08/19 05:13:03;;;;;;;2.75;1.90;;;;;;;;;;5034186;28;20541;-53
2021/08/19 05:15:29;;;;;;;1.98;1.67;;;;;;;;;;5033612;28;20022;-53
2021/08/19 05:17:55;;;;;;;1.67;1.35;;;;;;;;;;5033775;28;20033;-53
2021/08/19 05:20:22;;;;;;;3.03;1.63;;;;;;;;;;5033791;28;20083;-53
2021/08/19 05:22:48;;;;;;;1.65;1.55;;;;;;;;;;5033525;28;20025;-53
2021/08/19 05:25:14;;;;;;;2.03;1.17;;;;;;;;;;5033710;28;20099;-53
2021/08/19 05:27:40;;;;;;;1.95;1.20;;;;;;;;;;5033113;28;20021;-53
2021/08/19 05:30:07;;;;;;;1.80;1.15;;;;;;;;;;5033174;28;20033;-53
2021/08/19 05:32:34;;;;;;;2.83;1.25;;;;;;;;;;5033307;28;20132;-53
2021/08/19 05:35:02;;;;;;;2.05;1.25;;;;;;;;;;5029450;28;20744;-52
2021/08/19 05:37:28;;;;;;;1.40;1.30;;;;;;;;;;5013472;28;20367;-53
2021/08/19 05:39:54;;;;;;;3.50;1.65;;;;;;;;;;5032509;28;20021;-53
2021/08/19 05:42:20;;;;;;;2.38;1.40;;;;;;;;;;5033188;28;20028;-53
2021/08/19 05:44:46;;;;;;;1.63;1.17;;;;;;;;;;5032412;28;20105;-53
2021/08/19 05:47:12;;;;;;;3.35;1.75;;;;;;;;;;5032794;28;20120;-53
2021/08/19 05:49:43;;;;;;;2.30;1.42;;;;;;;;;;5032663;28;20025;-53
2021/08/19 05:52:12;;;;;;;4.13;1.63;;;;;;;;;;5033334;28;20174;-53
2021/08/19 05:54:37;;;;;;;1.02;0.98;;;;;;;;;;5033087;28;20021;-53
2021/08/19 05:57:04;;;;;;;2.40;1.25;;;;;;;;;;5033445;28;20431;-53
2021/08/19 05:59:30;;;;;;;5.93;1.52;;;;;;;;;;5032386;28;20021;-53
2021/08/19 06:01:56;;;;;;;2.22;1.10;;;;;;;;;;5033072;28;20025;-53
2021/08/19 06:04:22;;;;;;;1.60;1.30;;;;;;;;;;5033433;28;20017;-53
2021/08/19 06:06:47;;;;;;;2.65;1.42;;;;;;;;;;5033201;28;20347;-53
2021/08/19 06:09:14;;;;;;;1.52;1.20;;;;;;;;;;5033132;28;20024;-53
2021/08/19 06:11:40;;;;;;;1.25;1.00;;;;;;;;;;5032136;28;20439;-53
2021/08/19 06:14:06;;;;;;;1.23;0.80;;;;;;;;;;5033192;28;20128;-53
2021/08/19 06:16:32;;;;;;;1.98;1.20;;;;;;;;;;5033250;28;20018;-53
2021/08/19 06:19:00;;;;;;;2.85;1.08;;;;;;;;;;5033046;28;20029;-53
2021/08/19 06:21:26;;;;;;;1.27;1.10;;;;;;;;;;5031950;28;20056;-52
2021/08/19 06:23:52;;;;;;;1.70;1.17;;;;;;;;;;5032701;28;20432;-53
2021/08/19 06:26:17;;;;;;;1.95;1.10;;;;;;;;;;5033125;28;20030;-53
2021/08/19 06:28:44;;;;;;;3.17;1.13;;;;;;;;;;5033004;28;20018;-53
2021/08/19 06:31:10;;;;;;;2.45;1.10;;;;;;;;;;5032040;28;20112;-53
2021/08/19 06:33:36;;;;;;;3.45;0.98;;;;;;;;;;5032838;28;20056;-53
2021/08/19 06:36:01;;;;;;;1.70;1.20;;;;;;;;;;5021277;28;20022;-53
2021/08/19 06:38:27;;;;;;;1.48;1.08;;;;;;;;;;5013160;28;20037;-53
2021/08/19 06:40:53;;;;;;;3.45;1.20;;;;;;;;;;5011902;28;20123;-53
2021/08/19 06:43:19;;;;;;;2.63;1.23;;;;;;;;;;5013406;28;20028;-53
2021/08/19 06:45:45;;;;;;;1.50;1.27;;;;;;;;;;5012577;28;20033;-53
2021/08/19 06:48:11;;;;;;;0.80;0.80;;;;;;;;;;5013305;28;20030;-53
2021/08/19 06:50:37;;;;;;;2.13;1.10;;;;;;;;;;5015754;28;20329;-51
2021/08/19 06:53:03;;;;;;;1.27;1.17;;;;;;;;;;5015638;28;20109;-52
2021/08/19 06:55:30;;;;;;;0.90;0.90;;;;;;;;;;5025299;28;20025;-51
2021/08/19 06:57:56;;;;;;;5.05;1.55;;;;;;;;;;5021232;28;20091;-51
2021/08/19 07:00:22;;;;;;;1.60;1.05;;;;;;;;;;5036573;28;20075;-51
2021/08/19 07:02:48;;;;;;;2.13;1.38;;;;;;;;;;5026670;28;20044;-51
2021/08/19 07:05:14;;;;;;;1.88;1.13;;;;;;;;;;5016342;28;20436;-52
2021/08/19 07:07:40;;;;;;;2.22;1.40;;;;;;;;;;5021094;28;20041;-52
2021/08/19 07:10:07;;;;;;;1.77;1.30;;;;;;;;;;5035507;28;20463;-52
2021/08/19 07:12:33;;;;;;;1.27;1.13;;;;;;;;;;5034005;28;20044;-51
2021/08/19 07:14:59;;;;;;;3.20;1.20;;;;;;;;;;5035791;28;20117;-52
2021/08/19 07:17:25;;;;;;;1.55;1.00;;;;;;;;;;5036254;28;20414;-51
2021/08/19 07:19:51;;;;;;;1.27;1.17;;;;;;;;;;5035754;28;20022;-52
2021/08/19 07:22:17;;;;;;;1.00;0.90;;;;;;;;;;5035401;28;20159;-52
2021/08/19 07:24:43;;;;;;;1.33;0.90;;;;;;;;;;5036062;28;20448;-52
2021/08/19 07:27:10;;;;;;;5.93;1.20;;;;;;;;;;5035780;28;20463;-51
2021/08/19 07:29:36;;;;;;;1.08;1.00;;;;;;;;;;5035367;28;20053;-52
2021/08/19 07:32:02;;;;;;;2.17;0.95;;;;;;;;;;5034936;28;20095;-52
2021/08/19 07:34:28;;;;;;;1.80;1.02;;;;;;;;;;5035411;28;20033;-51
2021/08/19 07:36:54;;;;;;;4.72;1.30;;;;;;;;;;5035330;28;20021;-51
2021/08/19 07:39:21;;;;;;;1.90;0.95;;;;;;;;;;5034914;28;20025;-51
2021/08/19 07:41:47;;;;;;;1.00;0.82;;;;;;;;;;5034816;28;20455;-51
2021/08/19 07:44:13;;;;;;;4.50;0.90;;;;;;;;;;5035869;28;20025;-51
2021/08/19 07:46:40;;;;;;;1.02;0.93;;;;;;;;;;5035203;28;20455;-51
2021/08/19 07:49:06;;;;;;;1.55;1.33;;;;;;;;;;5035385;28;20493;-51
2021/08/19 07:51:34;;;;;;;1.92;1.20;;;;;;;;;;5035124;28;20030;-51
2021/08/19 07:54:00;;;;;;;8.85;1.20;;;;;;;;;;5035773;28;20026;-51
2021/08/19 07:56:26;;;;;;;2.00;1.20;;;;;;;;;;5035485;28;20044;-52
2021/08/19 07:58:52;;;;;;;5.07;0.82;;;;;;;;;;5036121;28;20022;-51
2021/08/19 08:01:18;;;;;;;1.52;0.85;;;;;;;;;;5033455;28;20465;-51
2021/08/19 08:03:44;;;;;;;1.20;0.98;;;;;;;;;;5035303;28;20030;-51
2021/08/19 08:06:12;;;;;;;0.93;0.75;;;;;;;;;;5035160;28;20027;-51
2021/08/19 08:08:38;;;;;;;2.17;0.90;;;;;;;;;;5034351;28;20021;-51
2021/08/19 08:11:04;;;;;;;0.70;0.70;;;;;;;;;;5034512;28;20040;-51
2021/08/19 08:13:30;;;;;;;2.55;1.05;;;;;;;;;;5035075;28;20045;-52
2021/08/19 08:15:57;;;;;;;1.52;1.05;;;;;;;;;;5034805;28;20407;-52
2021/08/19 08:18:23;;;;;;;1.65;1.00;;;;;;;;;;5035024;28;20065;-52
2021/08/19 08:20:49;;;;;;;3.70;1.25;;;;;;;;;;5033640;28;20022;-52
2021/08/19 08:23:21;;;;;;;1.08;0.95;;;;;;;;;;5034519;28;20071;-52
2021/08/19 08:25:48;;;;;;;1.50;1.00;;;;;;;;;;5034766;28;20061;-52
2021/08/19 08:28:16;;;;;;;1.80;1.17;;;;;;;;;;5035378;28;20026;-52
2021/08/19 08:30:45;;;;;;;1.42;1.10;;;;;;;;;;5034453;28;20029;-52
2021/08/19 08:33:13;;;;;;;1.55;1.10;;;;;;;;;;5034488;28;20036;-52
2021/08/19 08:35:39;;;;;;;2.13;0.93;;;;;;;;;;5026941;28;20018;-52
2021/08/19 08:38:10;;;;;;;9.88;1.20;;;;;;;;;;5015107;28;20026;-52
2021/08/19 08:40:38;;;;;;;1.65;1.30;;;;;;;;;;5014579;28;20026;-52
2021/08/19 08:43:04;;;;;;;1.00;0.95;;;;;;;;;;5014890;28;20022;-52
2021/08/19 08:45:34;;;;;;;2.28;1.10;;;;;;;;;;5015170;28;20022;-52
2021/08/19 08:48:01;;;;;;;0.68;0.68;;;;;;;;;;5014899;28;20034;-52
2021/08/19 08:50:28;;;;;;;1.42;1.10;;;;;;;;;;5013690;28;20359;-52
2021/08/19 08:52:54;;;;;;;1.20;1.10;;;;;;;;;;5014737;28;20041;-52
2021/08/19 08:55:20;;;;;;;1.00;0.85;;;;;;;;;;5014973;28;20109;-52
2021/08/19 08:57:49;;;;;;;2.53;1.40;;;;;;;;;;5014943;28;20057;-53
2021/08/19 09:00:15;;;;;;;2.03;1.08;;;;;;;;;;5014642;28;20033;-53
2021/08/19 09:02:41;;;;;;;2.35;1.20;;;;;;;;;;5014028;28;20026;-52
2021/08/19 09:05:18;;;;;;;1.50;1.30;;;;;;;;;;5014071;28;20113;-52
2021/08/19 09:07:54;;;;;;;1.20;1.10;;;;;;;;;;5013405;28;20022;-52
2021/08/19 09:10:20;;;;;;;1.02;0.82;;;;;;;;;;5014386;28;20018;-52
2021/08/19 09:12:46;;;;;;;1.65;1.15;;;;;;;;;;5013782;28;20205;-52
2021/08/19 09:15:13;;;;;;;1.73;1.25;;;;;;;;;;5014326;28;20100;-52
2021/08/19 09:17:45;;;;;;;0.98;0.90;;;;;;;;;;5014228;28;20030;-52
2021/08/19 09:20:12;;;;;;;2.15;0.90;;;;;;;;;;5013962;28;20050;-53
2021/08/19 09:22:51;;;;;;;1.10;1.00;;;;;;;;;;5013778;28;20559;-52
2021/08/19 09:25:26;;;;;;;1.02;0.93;;;;;;;;;;5013940;28;20124;-52
2021/08/19 09:28:11;;;;;;;2.00;1.13;;;;;;;;;;5013942;28;20034;-52
2021/08/19 09:30:37;;;;;;;2.63;1.38;;;;;;;;;;5013314;28;20527;-52
2021/08/19 09:33:04;;;;;;;2.95;1.50;;;;;;;;;;5013907;28;20061;-53
2021/08/19 09:35:31;;;;;;;1.23;1.13;;;;;;;;;;5014111;28;20026;-53
2021/08/19 09:37:57;;;;;;;1.40;1.00;;;;;;;;;;5013093;28;20394;-52
2021/08/19 09:40:23;;;;;;;1.48;1.23;;;;;;;;;;5014245;28;20022;-53
2021/08/19 09:42:49;;;;;;;1.33;1.02;;;;;;;;;;5012033;28;20367;-52
2021/08/19 09:45:21;;;;;;;1.30;1.08;;;;;;;;;;5014137;28;20033;-53
2021/08/19 09:47:48;;;;;;;1.25;0.93;;;;;;;;;;5013490;28;20045;-53
2021/08/19 09:50:15;;;;;;;1.02;0.90;;;;;;;;;;5013557;28;20084;-52
2021/08/19 09:52:42;;;;;;;1.20;1.10;;;;;;;;;;5012950;28;20037;-53
2021/08/19 09:55:37;;;;;;;1.20;1.10;;;;;;;;;;5013912;28;20021;-52
2021/08/19 09:58:03;;;;;;;1.20;1.10;;;;;;;;;;5010991;28;20447;-52
2021/08/19 10:00:32;;;;;;;2.08;1.27;;;;;;;;;;5010635;28;20114;-52
2021/08/19 10:02:58;;;;;;;1.48;0.93;;;;;;;;;;5010550;28;20119;-53
2021/08/19 10:05:25;;;;;;;1.20;1.10;;;;;;;;;;5011074;28;20026;-53
2021/08/19 10:07:51;;;;;;;3.13;1.50;;;;;;;;;;5009876;28;20085;-52
2021/08/19 10:10:17;;;;;;;1.38;1.15;;;;;;;;;;5010510;28;20363;-53
2021/08/19 10:12:45;;;;;;;1.48;1.23;;;;;;;;;;5010389;28;20108;-53
2021/08/19 10:15:11;;;;;;;2.38;1.30;;;;;;;;;;5010827;28;20113;-52
2021/08/19 10:17:38;;;;;;;3.05;1.00;;;;;;;;;;5010972;28;20466;-52
2021/08/19 10:20:11;;;;;;;2.20;0.80;;;;;;;;;;5010255;28;20026;-52
2021/08/19 10:22:38;;;;;;;1.30;0.90;;;;;;;;;;5010462;28;20042;-52
2021/08/19 10:25:05;;;;;;;0.80;0.80;;;;;;;;;;5010119;28;20053;-52
2021/08/19 10:27:32;;;;;;;1.23;1.00;;;;;;;;;;5010544;28;20042;-52
2021/08/19 10:30:05;;;;;;;1.30;1.20;;;;;;;;;;5010315;28;20084;-52
2021/08/19 10:32:35;;;;;;;2.30;1.10;;;;;;;;;;5010196;28;20088;-52
2021/08/19 10:35:03;;;;;;;1.60;1.00;;;;;;;;;;5012396;28;20029;-52
2021/08/19 10:37:47;;;;;;;1.50;1.30;;;;;;;;;;5012997;28;20062;-53
2021/08/19 10:40:20;;;;;;;1.48;0.90;;;;;;;;;;5012938;28;20044;-52
2021/08/19 10:42:51;;;;;;;1.92;1.30;;;;;;;;;;5012674;28;20045;-53
2021/08/19 10:45:29;;;;;;;1.13;1.02;;;;;;;;;;5013322;28;20022;-52
2021/08/19 10:47:55;;;;;;;1.27;1.10;;;;;;;;;;5012621;28;20042;-53
2021/08/19 10:50:22;;;;;;;1.20;0.98;;;;;;;;;;5012665;28;20045;-52
2021/08/19 10:52:48;;;;;;;0.98;0.90;;;;;;;;;;5012460;28;20415;-52
2021/08/19 10:55:15;;;;;;;1.73;0.90;;;;;;;;;;5013265;28;20072;-52
2021/08/19 10:57:54;;;;;;;1.13;0.90;;;;;;;;;;5012770;28;20451;-53
2021/08/19 11:00:34;;;;;;;1.60;1.08;;;;;;;;;;5012604;28;20022;-53
2021/08/19 11:03:00;;;;;;;1.08;1.00;;;;;;;;;;5012449;28;20029;-52
2021/08/19 11:05:26;;;;;;;1.83;1.10;;;;;;;;;;5013202;28;20030;-52
2021/08/19 11:07:53;;;;;;;1.60;1.08;;;;;;;;;;5011615;28;20474;-52
2021/08/19 11:10:23;;;;;;;1.35;1.00;;;;;;;;;;5012618;28;20531;-52
2021/08/19 11:12:50;;;;;;;1.48;1.02;;;;;;;;;;5011878;28;20121;-52
2021/08/19 11:15:16;;;;;;;1.10;1.00;;;;;;;;;;5012991;28;20080;-52
2021/08/19 11:17:54;;;;;;;2.20;1.02;;;;;;;;;;5012922;28;20432;-53
2021/08/19 11:20:22;;;;;;;3.97;1.17;;;;;;;;;;5012296;28;20533;-52
2021/08/19 11:23:03;;;;;;;1.15;1.02;;;;;;;;;;5012555;28;20030;-52
2021/08/19 11:25:29;;;;;;;1.92;1.42;;;;;;;;;;5011972;28;20042;-52
2021/08/19 11:27:55;;;;;;;1.27;1.15;;;;;;;;;;5012891;28;20117;-52
2021/08/19 11:30:31;;;;;;;1.40;1.13;;;;;;;;;;5012400;28;20026;-52
2021/08/19 11:33:14;;;;;;;3.40;1.30;;;;;;;;;;5012300;28;20367;-52
2021/08/19 11:35:40;;;;;;;2.25;1.20;;;;;;;;;;5012540;28;20033;-52
2021/08/19 11:38:16;;;;;;;1.13;1.02;;;;;;;;;;5015754;28;20041;-52
2021/08/19 11:40:44;;;;;;;0.80;0.73;;;;;;;;;;5015387;28;20034;-52
2021/08/19 11:43:30;;;;;;;1.15;0.90;;;;;;;;;;5016247;28;20029;-52
2021/08/19 11:46:11;;;;;;;3.20;1.33;;;;;;;;;;5015977;28;20038;-52
2021/08/19 11:48:38;;;;;;;2.60;1.10;;;;;;;;;;5016361;28;20116;-52
2021/08/19 11:51:05;;;;;;;1.30;1.20;;;;;;;;;;5015217;28;20112;-53
2021/08/19 11:53:31;;;;;;;1.13;1.00;;;;;;;;;;5015622;28;20471;-53
2021/08/19 11:56:10;;;;;;;3.83;1.20;;;;;;;;;;5016176;28;20046;-52
2021/08/19 11:58:36;;;;;;;2.17;1.20;;;;;;;;;;5015647;28;20041;-52
2021/08/19 12:01:11;;;;;;;1.20;1.10;;;;;;;;;;5014940;28;20032;-52
2021/08/19 12:03:39;;;;;;;1.10;1.00;;;;;;;;;;5015982;28;20125;-52
2021/08/19 12:06:07;;;;;;;1.52;1.23;;;;;;;;;;5016080;28;20022;-52
2021/08/19 12:08:34;;;;;;;2.15;1.15;;;;;;;;;;5014330;28;20440;-52
2021/08/19 12:11:02;;;;;;;1.08;1.00;;;;;;;;;;5014908;28;20041;-52
2021/08/19 12:13:29;;;;;;;1.20;1.10;;;;;;;;;;5015546;28;20022;-52
2021/08/19 12:15:56;;;;;;;1.83;1.30;;;;;;;;;;5015792;28;20025;-52
2021/08/19 12:18:25;;;;;;;1.45;1.00;;;;;;;;;;5015524;28;20080;-52
2021/08/19 12:20:52;;;;;;;1.65;1.10;;;;;;;;;;5014770;28;20129;-52
2021/08/19 12:23:20;;;;;;;2.00;1.00;;;;;;;;;;5015287;28;20074;-52
2021/08/19 12:25:46;;;;;;;2.15;1.23;;;;;;;;;;5014900;28;20355;-52
2021/08/19 12:28:12;;;;;;;1.42;0.90;;;;;;;;;;5015469;28;20030;-52
2021/08/19 12:30:54;;;;;;;1.38;1.00;;;;;;;;;;5014237;28;20018;-53
2021/08/19 12:33:29;;;;;;;1.77;1.00;;;;;;;;;;5015194;28;20053;-53
2021/08/19 12:36:10;;;;;;;1.38;1.00;;;;;;;;;;5014985;28;20343;-52
2021/08/19 12:38:36;;;;;;;2.75;0.95;;;;;;;;;;5014701;28;20032;-52
2021/08/19 12:41:16;;;;;;;1.35;1.00;;;;;;;;;;5014442;28;20034;-52
2021/08/19 12:43:42;;;;;;;2.13;1.13;;;;;;;;;;5014688;28;20427;-52
2021/08/19 12:46:10;;;;;;;1.58;0.80;;;;;;;;;;5015229;28;20394;-52
2021/08/19 12:48:36;;;;;;;1.10;1.00;;;;;;;;;;5014875;28;20041;-52
2021/08/19 12:51:17;;;;;;;1.50;0.90;;;;;;;;;;5014184;28;20034;-52
2021/08/19 12:54:03;;;;;;;1.33;1.02;;;;;;;;;;5015066;28;20050;-52
2021/08/19 12:56:30;;;;;;;1.40;1.17;;;;;;;;;;5017495;28;20096;-53
2021/08/19 12:58:56;;;;;;;1.42;1.20;;;;;;;;;;5017913;28;20120;-52
2021/08/19 13:01:22;;;;;;;1.00;0.90;;;;;;;;;;5033993;28;20061;-53
2021/08/19 13:03:48;;;;;;;1.30;1.10;;;;;;;;;;5026177;28;20026;-52
2021/08/19 13:06:14;;;;;;;1.88;1.20;;;;;;;;;;5014452;28;20072;-52
2021/08/19 13:08:40;;;;;;;2.97;0.90;;;;;;;;;;5012928;28;20022;-52
2021/08/19 13:11:06;;;;;;;2.72;1.10;;;;;;;;;;5013754;28;20074;-52
2021/08/19 13:13:32;;;;;;;5.03;1.85;;;;;;;;;;5014283;28;20029;-52
2021/08/19 13:15:58;;;;;;;1.83;1.02;;;;;;;;;;5014620;28;20041;-52
2021/08/19 13:18:24;;;;;;;2.47;1.15;;;;;;;;;;5014426;28;20022;-52
2021/08/19 13:20:50;;;;;;;1.02;0.93;;;;;;;;;;5013269;28;20453;-52
2021/08/19 13:23:16;;;;;;;2.03;0.95;;;;;;;;;;5014204;28;20095;-52
2021/08/19 13:25:42;;;;;;;1.17;1.02;;;;;;;;;;5013961;28;20471;-52
2021/08/19 13:28:09;;;;;;;1.52;1.02;;;;;;;;;;5014330;28;20034;-52
2021/08/19 13:30:35;;;;;;;1.02;0.95;;;;;;;;;;5013321;28;20030;-52
2021/08/19 13:33:01;;;;;;;1.98;1.00;;;;;;;;;;5014175;28;20112;-52
2021/08/19 13:35:27;;;;;;;1.35;1.10;;;;;;;;;;5020217;28;20022;-52
2021/08/19 13:37:53;;;;;;;1.13;0.98;;;;;;;;;;5033415;28;20032;-52
2021/08/19 13:40:19;;;;;;;2.15;1.42;;;;;;;;;;5032997;28;20026;-52
2021/08/19 13:42:45;;;;;;;0.80;0.70;;;;;;;;;;5033173;28;20108;-52
2021/08/19 13:45:12;;;;;;;4.25;1.75;;;;;;;;;;5033329;28;20060;-52
2021/08/19 13:47:38;;;;;;;2.15;1.40;;;;;;;;;;5033541;28;20083;-52
2021/08/19 13:50:04;;;;;;;1.90;1.45;;;;;;;;;;5033259;28;20030;-52
2021/08/19 13:52:30;;;;;;;3.03;1.40;;;;;;;;;;5033111;28;20079;-52
2021/08/19 13:54:56;;;;;;;3.58;1.60;;;;;;;;;;5033373;28;20033;-52
2021/08/19 13:57:22;;;;;;;2.08;1.17;;;;;;;;;;5033455;28;20017;-52
2021/08/19 13:59:48;;;;;;;3.08;1.48;;;;;;;;;;5032475;28;20104;-52
2021/08/19 14:02:14;;;;;;;1.13;1.02;;;;;;;;;;5032921;28;20029;-52
2021/08/19 14:04:40;;;;;;;1.80;1.20;;;;;;;;;;5033411;28;20017;-52
2021/08/19 14:07:06;;;;;;;3.42;1.50;;;;;;;;;;5032116;28;20074;-52
2021/08/19 14:09:32;;;;;;;1.60;1.27;;;;;;;;;;5033117;28;20391;-53
2021/08/19 14:11:58;;;;;;;1.23;1.13;;;;;;;;;;5032823;28;20041;-52
2021/08/19 14:14:25;;;;;;;1.42;1.13;;;;;;;;;;5033192;28;20018;-52
2021/08/19 14:16:51;;;;;;;2.35;1.27;;;;;;;;;;5033131;28;20029;-52
2021/08/19 14:19:18;;;;;;;1.45;1.30;;;;;;;;;;5032708;28;20049;-52
2021/08/19 14:21:44;;;;;;;1.77;1.20;;;;;;;;;;5032767;28;20022;-52
2021/08/19 14:24:10;;;;;;;2.35;1.38;;;;;;;;;;5033116;28;20116;-52
2021/08/19 14:26:36;;;;;;;0.98;0.93;;;;;;;;;;5032984;28;20072;-52
2021/08/19 14:29:02;;;;;;;1.38;0.90;;;;;;;;;;5032434;28;20021;-52
2021/08/19 14:31:29;;;;;;;2.00;1.20;;;;;;;;;;5032587;28;20029;-52
2021/08/19 14:33:55;;;;;;;1.23;1.00;;;;;;;;;;5032735;28;20071;-53
2021/08/19 14:36:21;;;;;;;5.28;1.52;;;;;;;;;;5033012;28;20044;-52
2021/08/19 14:38:48;;;;;;;1.13;0.88;;;;;;;;;;5033045;28;20026;-52
2021/08/19 14:41:14;;;;;;;1.42;1.02;;;;;;;;;;5031962;28;20033;-52
2021/08/19 14:43:41;;;;;;;1.20;1.10;;;;;;;;;;5032906;28;20550;-52